Indian Gap, Texas
Current Conditions -  °F | °C
As of 12:55 AM on Friday 19 Dec 2014 (Local Time) from KMNZ Reporting Station
Overcast Overcast  
Wind Chill: 43°   Ceiling: 1700
Heat Index: 47°   Visibility: 10mi
Dew Point: 45°   Wind: 8mph
Humidity: 90%   Direction: 40°NE
Pressure: 30.13"   Gusts: NA
Location:  31.6401°N, 98.1198°W
Report Text: KMNZ 190655Z AUTO 04007KT 10SM SCT011 BKN017 OVC070 09/07 A3013 RMK AO2 LTG DSNT SE T00850070
Loading
Personal Weather Stations






























Interactive Weather Map New forecast layout! Learn more

10-Day Weather Forecast

Advertisements
Track Severe Weather on mobile